Time;durP1;ratioP1;P1;durP2;ratioP2;P2;SDS_P1;SDS_P2;PMS_P1;PMS_P2;Temp;Humidity;BMP_temperature;BMP_pressure;BME280_temperature;BME280_humidity;BME280_pressure;Samples;Min_cycle;Max_cycle;Signal;HPM_P1;HPM_P2
2022/04/29 00:02:22;;;;;;;;;;;;;;;15.15;43.31;103226.47;5066002;28;19927;-73
2022/04/29 00:04:47;;;;;;;;;;;;;;;15.22;43.26;103224.63;5069568;28;20312;-72
2022/04/29 00:07:12;;;;;;;;;;;;;;;15.45;42.28;103227.13;5070129;28;20388;-72
2022/04/29 00:09:38;;;;;;;;;;;;;;;15.56;42.13;103221.13;5062257;28;19923;-72
2022/04/29 00:12:05;;;;;;;;;;;;;;;15.05;43.31;103228.69;5050314;28;19951;-71
2022/04/29 00:14:30;;;;;;;;;;;;;;;15.68;42.05;103219.53;5051761;28;19928;-72
2022/04/29 00:16:56;;;;;;;;;;;;;;;15.52;42.67;103226.13;5068985;28;20414;-73
2022/04/29 00:19:21;;;;;;;;;;;;;;;15.55;42.34;103233.84;5052324;28;19917;-73
2022/04/29 00:21:46;;;;;;;;;;;;;;;15.41;42.58;103225.81;5051329;28;19925;-72
2022/04/29 00:24:11;;;;;;;;;;;;;;;15.19;42.94;103229.63;5051564;28;19939;-71
2022/04/29 00:26:37;;;;;;;;;;;;;;;15.47;42.62;103223.16;5051593;28;19923;-71
2022/04/29 00:29:03;;;;;;;;;;;;;;;15.81;41.81;103206.03;5050705;28;19963;-72
2022/04/29 00:31:28;;;;;;;;;;;;;;;15.59;42.26;103212.59;5060644;28;20012;-72
2022/04/29 00:33:54;;;;;;;;;;;;;;;15.37;42.37;103211.00;5071388;28;20139;-72
2022/04/29 00:36:19;;;;;;;;;;;;;;;15.08;43.49;103208.47;5071540;28;19919;-71
2022/04/29 00:38:45;;;;;;;;;;;;;;;15.36;42.58;103212.84;5070294;28;19959;-70
2022/04/29 00:41:15;;;;;;;;;;;;;;;15.11;43.42;103213.53;5050750;28;19936;-72
2022/04/29 00:43:40;;;;;;;;;;;;;;;15.14;43.12;103197.69;5050440;28;20331;-71
2022/04/29 00:46:07;;;;;;;;;;;;;;;15.35;42.67;103199.53;5050181;28;19925;-71
2022/04/29 00:48:32;;;;;;;;;;;;;;;15.13;43.27;103203.31;5051041;28;19920;-72
2022/04/29 00:50:57;;;;;;;;;;;;;;;15.35;42.45;103188.69;5051046;28;20296;-72
2022/04/29 00:53:23;;;;;;;;;;;;;;;15.05;43.42;103181.81;5050719;28;19917;-73
2022/04/29 00:55:49;;;;;;;;;;;;;;;14.84;44.02;103179.97;5066574;28;19927;-72
2022/04/29 00:58:17;;;;;;;;;;;;;;;14.79;44.29;103169.75;5070104;28;20273;-71
2022/04/29 01:00:43;;;;;;;;;;;;;;;14.98;43.71;103181.75;5070311;28;19930;-71
2022/04/29 01:03:11;;;;;;;;;;;;;;;15.09;43.25;103183.94;5071344;28;19917;-72
2022/04/29 01:05:37;;;;;;;;;;;;;;;14.79;43.96;103180.59;5070311;28;19927;-72
2022/04/29 01:08:02;;;;;;;;;;;;;;;14.70;44.54;103170.09;5070598;28;19999;-72
2022/04/29 01:10:28;;;;;;;;;;;;;;;14.80;44.42;103168.69;5056165;28;20012;-72
2022/04/29 01:12:55;;;;;;;;;;;;;;;14.57;44.30;103164.53;5050530;28;19932;-72
2022/04/29 01:15:20;;;;;;;;;;;;;;;14.65;44.45;103159.00;5051067;28;20265;-72
2022/04/29 01:17:46;;;;;;;;;;;;;;;14.81;43.73;103164.13;5050690;28;19928;-72
2022/04/29 01:20:13;;;;;;;;;;;;;;;14.86;44.15;103156.25;5050334;28;20373;-72
2022/04/29 01:22:38;;;;;;;;;;;;;;;14.83;43.64;103148.53;5050996;28;20349;-74
2022/04/29 01:25:03;;;;;;;;;;;;;;;14.87;43.17;103152.53;5050223;28;19990;-72
2022/04/29 01:27:29;;;;;;;;;;;;;;;14.63;44.23;103151.09;5048765;28;19917;-72
2022/04/29 01:29:57;;;;;;;;;;;;;;;14.84;43.78;103153.75;5052185;28;19982;-73
2022/04/29 01:32:23;;;;;;;;;;;;;;;14.29;45.20;103158.28;5052690;28;19946;-73
2022/04/29 01:34:48;;;;;;;;;;;;;;;14.66;44.45;103153.38;5049898;28;19921;-72
2022/04/29 01:37:13;;;;;;;;;;;;;;;14.70;43.92;103143.84;5050316;28;19917;-71
2022/04/29 01:39:38;;;;;;;;;;;;;;;14.67;44.31;103144.25;5056845;28;19916;-72
2022/04/29 01:42:04;;;;;;;;;;;;;;;14.78;44.24;103151.00;5070535;28;19928;-72
2022/04/29 01:44:29;;;;;;;;;;;;;;;14.63;44.70;103147.53;5069919;28;19981;-73
2022/04/29 01:46:54;;;;;;;;;;;;;;;14.52;44.54;103146.22;5050370;28;20365;-71
2022/04/29 01:49:19;;;;;;;;;;;;;;;14.32;45.00;103142.50;5050701;28;19921;-72
2022/04/29 01:51:45;;;;;;;;;;;;;;;14.72;44.53;103135.56;5049459;28;20103;-72
2022/04/29 01:54:11;;;;;;;;;;;;;;;14.34;45.24;103134.16;5053931;28;20296;-73
2022/04/29 01:56:39;;;;;;;;;;;;;;;14.68;44.50;103135.09;5070392;28;20529;-73
2022/04/29 01:59:05;;;;;;;;;;;;;;;14.75;43.97;103132.44;5069288;28;19924;-72
2022/04/29 02:01:30;;;;;;;;;;;;;;;14.57;44.41;103138.34;5069207;28;19920;-73
2022/04/29 02:03:55;;;;;;;;;;;;;;;15.13;43.36;103147.28;5070186;28;19920;-73
2022/04/29 02:06:21;;;;;;;;;;;;;;;14.75;44.52;103145.97;5069770;28;19960;-71
2022/04/29 02:08:48;;;;;;;;;;;;;;;14.61;44.53;103146.91;5061009;28;19916;-72
2022/04/29 02:11:13;;;;;;;;;;;;;;;14.62;44.52;103140.47;5054090;28;20641;-72
2022/04/29 02:13:38;;;;;;;;;;;;;;;14.85;43.86;103138.34;5053207;28;19917;-73
2022/04/29 02:16:04;;;;;;;;;;;;;;;14.53;44.52;103128.94;5052694;28;19952;-72
2022/04/29 02:18:29;;;;;;;;;;;;;;;14.79;44.44;103115.63;5054080;28;19947;-72
2022/04/29 02:20:55;;;;;;;;;;;;;;;14.74;44.26;103115.34;5053987;28;19928;-72
2022/04/29 02:23:20;;;;;;;;;;;;;;;14.74;43.97;103123.47;5053880;28;19924;-73
2022/04/29 02:25:45;;;;;;;;;;;;;;;14.76;43.88;103123.31;5053562;28;19920;-71
2022/04/29 02:28:11;;;;;;;;;;;;;;;14.76;44.33;103115.19;5053365;28;19921;-72
2022/04/29 02:30:37;;;;;;;;;;;;;;;14.18;45.47;103110.06;5056086;28;19936;-72
2022/04/29 02:33:02;;;;;;;;;;;;;;;14.58;44.58;103118.38;5066159;28;19921;-72
2022/04/29 02:35:28;;;;;;;;;;;;;;;14.62;44.64;103118.81;5053519;28;19969;-71
2022/04/29 02:37:53;;;;;;;;;;;;;;;14.58;44.27;103118.38;5053642;28;20319;-73
2022/04/29 02:40:18;;;;;;;;;;;;;;;14.50;44.85;103129.34;5065511;28;19927;-73
2022/04/29 02:42:43;;;;;;;;;;;;;;;14.52;44.57;103118.31;5071539;28;19921;-72
2022/04/29 02:45:09;;;;;;;;;;;;;;;14.53;44.79;103120.81;5073605;28;19920;-72
2022/04/29 02:47:35;;;;;;;;;;;;;;;14.88;43.86;103118.97;5072345;28;20370;-74
2022/04/29 02:50:03;;;;;;;;;;;;;;;14.87;43.86;103110.06;5073214;28;19917;-72
2022/04/29 02:52:29;;;;;;;;;;;;;;;14.47;44.92;103115.34;5072626;28;20421;-73
2022/04/29 02:54:54;;;;;;;;;;;;;;;14.76;44.17;103124.13;5063391;28;19970;-72
2022/04/29 02:57:19;;;;;;;;;;;;;;;14.42;45.15;103126.78;5053792;28;19992;-73
2022/04/29 02:59:45;;;;;;;;;;;;;;;14.70;44.44;103122.19;5052897;28;19921;-73
2022/04/29 03:02:10;;;;;;;;;;;;;;;14.57;44.89;103127.50;5052996;28;19921;-72
2022/04/29 03:04:35;;;;;;;;;;;;;;;14.83;44.07;103116.91;5052839;28;20619;-72
2022/04/29 03:07:02;;;;;;;;;;;;;;;14.50;45.07;103118.50;5052173;28;20320;-71
2022/04/29 03:09:27;;;;;;;;;;;;;;;14.61;45.02;103130.66;5053437;28;19978;-72
2022/04/29 03:11:53;;;;;;;;;;;;;;;14.42;45.21;103125.91;5052819;28;19913;-72
2022/04/29 03:14:18;;;;;;;;;;;;;;;14.23;46.04;103121.97;5052106;28;19921;-73
2022/04/29 03:16:43;;;;;;;;;;;;;;;14.05;46.04;103122.41;5053407;28;20698;-72
2022/04/29 03:19:09;;;;;;;;;;;;;;;14.53;44.80;103126.22;5051445;28;20454;-74
2022/04/29 03:21:34;;;;;;;;;;;;;;;14.45;45.03;103115.53;5052601;28;19924;-72
2022/04/29 03:24:03;;;;;;;;;;;;;;;14.25;45.54;103119.91;5053243;28;19909;-72
2022/04/29 03:26:29;;;;;;;;;;;;;;;14.21;45.79;103115.09;5052593;28;19963;-72
2022/04/29 03:28:54;;;;;;;;;;;;;;;14.11;46.08;103112.72;5052847;28;19967;-72
2022/04/29 03:31:19;;;;;;;;;;;;;;;14.13;45.88;103103.34;5052347;28;19917;-72
2022/04/29 03:33:45;;;;;;;;;;;;;;;14.63;44.92;103109.66;5051865;28;20411;-73
2022/04/29 03:36:10;;;;;;;;;;;;;;;14.62;44.75;103102.59;5053082;28;20434;-74
2022/04/29 03:38:36;;;;;;;;;;;;;;;14.58;44.92;103094.03;5051907;28;20375;-73
2022/04/29 03:41:02;;;;;;;;;;;;;;;14.45;45.30;103090.34;5052061;28;20272;-73
2022/04/29 03:43:28;;;;;;;;;;;;;;;14.52;44.70;103088.56;5052142;28;19925;-72
2022/04/29 03:45:53;;;;;;;;;;;;;;;14.18;45.99;103105.50;5062778;28;19924;-73
2022/04/29 03:48:18;;;;;;;;;;;;;;;14.40;45.30;103104.47;5072384;28;19912;-72
2022/04/29 03:50:44;;;;;;;;;;;;;;;14.51;45.20;103106.66;5071839;28;20651;-73
2022/04/29 03:53:09;;;;;;;;;;;;;;;14.15;46.09;103111.31;5071753;28;19943;-71
2022/04/29 03:55:35;;;;;;;;;;;;;;;14.46;44.99;103122.66;5071862;28;19927;-73
2022/04/29 03:58:02;;;;;;;;;;;;;;;14.43;45.18;103120.31;5072306;28;19920;-73
2022/04/29 04:00:32;;;;;;;;;;;;;;;13.63;47.01;103125.06;5064807;28;20352;-73
2022/04/29 04:02:58;;;;;;;;;;;;;;;14.32;45.95;103126.25;5052593;28;19925;-74
2022/04/29 04:05:23;;;;;;;;;;;;;;;13.86;46.57;103108.69;5051708;28;19921;-74
2022/04/29 04:07:49;;;;;;;;;;;;;;;13.74;47.04;103091.28;5050814;28;19986;-72
2022/04/29 04:10:14;;;;;;;;;;;;;;;13.92;46.72;103091.69;5058759;28;19920;-72
2022/04/29 04:12:43;;;;;;;;;;;;;;;13.88;46.88;103104.78;5070980;28;20473;-72
2022/04/29 04:15:09;;;;;;;;;;;;;;;14.15;46.25;103100.50;5069302;28;19920;-72
2022/04/29 04:17:35;;;;;;;;;;;;;;;14.26;45.97;103094.53;5054621;28;19921;-72
2022/04/29 04:20:00;;;;;;;;;;;;;;;14.13;46.09;103099.00;5068498;28;19955;-72
2022/04/29 04:22:29;;;;;;;;;;;;;;;14.13;46.23;103106.06;5050826;28;19921;-73
2022/04/29 04:24:57;;;;;;;;;;;;;;;14.36;45.76;103105.06;5052281;28;19944;-73
2022/04/29 04:27:23;;;;;;;;;;;;;;;14.41;45.69;103114.25;5051723;28;19942;-72
2022/04/29 04:29:48;;;;;;;;;;;;;;;14.60;45.26;103099.22;5058037;28;20011;-73
2022/04/29 04:32:13;;;;;;;;;;;;;;;14.21;46.32;103098.88;5071465;28;20021;-72
2022/04/29 04:34:51;;;;;;;;;;;;;;;14.25;46.02;103100.16;5058025;28;19931;-72
2022/04/29 04:37:20;;;;;;;;;;;;;;;14.22;45.89;103100.53;5069499;28;19927;-72
2022/04/29 04:39:45;;;;;;;;;;;;;;;13.89;46.95;103098.34;5062649;28;19920;-73
2022/04/29 04:42:10;;;;;;;;;;;;;;;13.66;47.51;103099.53;5051419;28;19923;-73
2022/04/29 04:44:36;;;;;;;;;;;;;;;14.13;46.68;103092.53;5050752;28;19924;-72
2022/04/29 04:47:01;;;;;;;;;;;;;;;14.21;46.64;103106.97;5070475;28;19927;-72
2022/04/29 04:49:26;;;;;;;;;;;;;;;14.39;45.60;103110.91;5071217;28;19955;-73
2022/04/29 04:51:52;;;;;;;;;;;;;;;14.81;44.69;103107.28;5070404;28;19925;-73
2022/04/29 04:54:17;;;;;;;;;;;;;;;14.40;45.82;103111.75;5071020;28;19948;-74
2022/04/29 04:56:42;;;;;;;;;;;;;;;13.96;47.20;103123.56;5064050;28;19917;-73
2022/04/29 04:59:07;;;;;;;;;;;;;;;14.41;45.73;103116.13;5050667;28;19920;-74
2022/04/29 05:01:33;;;;;;;;;;;;;;;14.46;45.72;103110.97;5051053;28;19927;-73
2022/04/29 05:03:58;;;;;;;;;;;;;;;14.27;46.02;103107.03;5049010;28;19939;-73
2022/04/29 05:06:23;;;;;;;;;;;;;;;14.07;46.62;103106.84;5049952;28;20726;-72
2022/04/29 05:08:48;;;;;;;;;;;;;;;14.28;46.80;103110.59;5050089;28;19916;-72
2022/04/29 05:11:14;;;;;;;;;;;;;;;14.53;45.62;103101.03;5070358;28;19963;-73
2022/04/29 05:13:39;;;;;;;;;;;;;;;14.00;47.14;103095.13;5070433;28;19939;-73
2022/04/29 05:16:05;;;;;;;;;;;;;;;14.23;46.82;103100.31;5070655;28;19920;-72
2022/04/29 05:18:30;;;;;;;;;;;;;;;14.50;46.08;103102.28;5059054;28;19995;-72
2022/04/29 05:21:00;;;;;;;;;;;;;;;14.83;45.49;103100.66;5051108;28;20306;-74
2022/04/29 05:23:25;;;;;;;;;;;;;;;14.74;45.58;103101.81;5050893;28;19928;-72
2022/04/29 05:25:50;;;;;;;;;;;;;;;14.95;44.93;103111.75;5050453;28;20300;-73
2022/04/29 05:28:16;;;;;;;;;;;;;;;15.07;44.44;103117.47;5051078;28;19929;-73
2022/04/29 05:30:41;;;;;;;;;;;;;;;14.98;44.50;103126.78;5051164;28;19932;-73
2022/04/29 05:33:07;;;;;;;;;;;;;;;14.60;45.82;103123.59;5049059;28;19912;-72
2022/04/29 05:35:33;;;;;;;;;;;;;;;14.57;45.87;103124.81;5051136;28;20428;-75
2022/04/29 05:37:59;;;;;;;;;;;;;;;14.93;45.35;103122.78;5050499;28;19924;-73
2022/04/29 05:43:08;;;;;;;;;;;;;;;14.80;44.82;103114.56;5074201;28;20032;-73
2022/04/29 05:45:34;;;;;;;;;;;;;;;15.43;43.87;103108.09;5065843;28;19987;-74
2022/04/29 05:47:59;;;;;;;;;;;;;;;14.90;45.47;103116.91;5054766;28;19920;-72
2022/04/29 05:50:24;;;;;;;;;;;;;;;14.73;45.79;103108.28;5053759;28;19920;-73
2022/04/29 05:52:50;;;;;;;;;;;;;;;15.18;44.49;103103.34;5053387;28;20003;-72
2022/04/29 05:55:15;;;;;;;;;;;;;;;14.76;45.92;103115.19;5065327;28;19978;-75
2022/04/29 05:57:40;;;;;;;;;;;;;;;15.22;44.90;103110.03;5074839;28;19932;-73
2022/04/29 06:00:06;;;;;;;;;;;;;;;15.49;43.78;103104.56;5074806;28;20335;-74
2022/04/29 06:02:33;;;;;;;;;;;;;;;15.50;44.08;103102.69;5074195;28;20019;-73
2022/04/29 06:04:59;;;;;;;;;;;;;;;15.64;43.78;103096.28;5073663;28;19959;-73
2022/04/29 06:07:25;;;;;;;;;;;;;;;15.57;43.71;103092.72;5073750;28;19928;-74
2022/04/29 06:09:50;;;;;;;;;;;;;;;15.08;45.30;103102.88;5064985;28;19928;-73
2022/04/29 06:12:15;;;;;;;;;;;;;;;15.25;44.56;103093.38;5074585;28;19974;-73
2022/04/29 06:14:43;;;;;;;;;;;;;;;15.37;44.96;103092.59;5070646;28;19924;-73
2022/04/29 06:17:08;;;;;;;;;;;;;;;15.98;42.98;103089.91;5073302;28;19996;-74
2022/04/29 06:19:34;;;;;;;;;;;;;;;15.46;44.12;103086.00;5057418;28;20033;-73
2022/04/29 06:21:59;;;;;;;;;;;;;;;15.16;45.48;103100.00;5062569;28;19932;-74
2022/04/29 06:24:24;;;;;;;;;;;;;;;15.61;44.54;103091.25;5057179;28;19916;-72
2022/04/29 06:26:49;;;;;;;;;;;;;;;15.82;43.54;103100.09;5061660;28;19916;-73
2022/04/29 06:29:15;;;;;;;;;;;;;;;15.76;43.77;103097.38;5061697;28;19982;-74
2022/04/29 06:31:40;;;;;;;;;;;;;;;15.75;43.87;103101.97;5073501;28;19920;-73
2022/04/29 06:34:05;;;;;;;;;;;;;;;15.65;44.21;103106.06;5073653;28;19927;-74
2022/04/29 06:36:31;;;;;;;;;;;;;;;15.38;45.33;103115.13;5072446;28;19967;-74
2022/04/29 06:38:56;;;;;;;;;;;;;;;15.74;44.33;103104.88;5057786;28;19970;-73
2022/04/29 06:41:21;;;;;;;;;;;;;;;15.70;43.94;103111.75;5073218;28;20406;-73
2022/04/29 06:43:47;;;;;;;;;;;;;;;16.12;43.22;103106.00;5073422;28;19932;-73
2022/04/29 06:46:13;;;;;;;;;;;;;;;15.72;44.92;103102.34;5073036;28;19956;-72
2022/04/29 06:48:38;;;;;;;;;;;;;;;15.76;44.37;103102.78;5071199;28;19959;-73
2022/04/29 06:51:04;;;;;;;;;;;;;;;15.48;45.27;103099.34;5061975;28;19974;-73
2022/04/29 06:53:29;;;;;;;;;;;;;;;15.20;45.77;103109.41;5072235;28;19976;-73
2022/04/29 06:55:54;;;;;;;;;;;;;;;15.05;46.46;103122.22;5054275;28;19963;-74
2022/04/29 06:58:19;;;;;;;;;;;;;;;15.91;43.87;103108.88;5052927;28;19917;-73
2022/04/29 07:00:45;;;;;;;;;;;;;;;16.22;43.39;103125.41;5052922;28;19920;-74
2022/04/29 07:03:11;;;;;;;;;;;;;;;16.19;43.31;103125.84;5052555;28;19994;-73
2022/04/29 07:05:37;;;;;;;;;;;;;;;15.71;44.40;103133.22;5052330;28;20017;-73
2022/04/29 07:08:03;;;;;;;;;;;;;;;15.90;43.97;103128.06;5050557;28;20324;-73
2022/04/29 07:10:28;;;;;;;;;;;;;;;16.53;42.33;103125.66;5065867;28;19924;-72
2022/04/29 07:12:53;;;;;;;;;;;;;;;16.15;43.43;103142.72;5072638;28;20013;-75
2022/04/29 07:15:19;;;;;;;;;;;;;;;15.78;43.95;103147.63;5072484;28;19982;-73
2022/04/29 07:17:44;;;;;;;;;;;;;;;15.72;44.56;103153.84;5067298;28;20392;-73
2022/04/29 07:20:10;;;;;;;;;;;;;;;15.81;44.42;103133.69;5052376;28;20014;-72
2022/04/29 07:22:38;;;;;;;;;;;;;;;15.99;44.03;103132.25;5051461;28;20381;-72
2022/04/29 07:25:03;;;;;;;;;;;;;;;16.21;43.72;103123.75;5055429;28;19928;-72
2022/04/29 07:27:29;;;;;;;;;;;;;;;16.07;43.69;103118.50;5059776;28;19927;-72
2022/04/29 07:29:54;;;;;;;;;;;;;;;16.60;42.44;103107.50;5058403;28;19913;-74
2022/04/29 07:32:20;;;;;;;;;;;;;;;16.96;41.78;103117.06;5055105;28;19931;-72
2022/04/29 07:42:56;;;;;;;;;;;;;;;16.37;43.69;103107.03;5056232;28;19978;-73
2022/04/29 07:45:22;;;;;;;;;;;;;;;17.15;41.83;103098.00;5058131;28;20404;-72
2022/04/29 07:47:47;;;;;;;;;;;;;;;16.60;43.10;103101.25;5058446;28;19934;-74
2022/04/29 07:50:13;;;;;;;;;;;;;;;16.86;42.15;103097.66;5061798;28;19974;-73
2022/04/29 07:52:38;;;;;;;;;;;;;;;17.04;41.67;103114.94;5061352;28;20706;-73
2022/04/29 07:55:03;;;;;;;;;;;;;;;16.63;42.88;103120.66;5057558;28;19956;-74
2022/04/29 07:57:29;;;;;;;;;;;;;;;17.48;40.77;103125.94;5061037;28;20007;-73
2022/04/29 07:59:54;;;;;;;;;;;;;;;18.09;40.01;103128.13;5064305;28;19917;-73
2022/04/29 08:02:19;;;;;;;;;;;;;;;18.11;39.54;103132.28;5058456;28;19925;-73
2022/04/29 08:04:44;;;;;;;;;;;;;;;18.18;39.30;103132.25;5059230;28;19952;-73
2022/04/29 08:07:11;;;;;;;;;;;;;;;17.97;39.69;103130.69;5054152;28;19943;-73
2022/04/29 08:09:36;;;;;;;;;;;;;;;18.20;39.17;103132.88;5058544;28;19916;-73
2022/04/29 08:12:01;;;;;;;;;;;;;;;17.31;40.53;103134.75;5060113;28;20429;-73
2022/04/29 08:14:27;;;;;;;;;;;;;;;16.58;41.91;103139.47;5056708;28;19923;-73
2022/04/29 08:16:52;;;;;;;;;;;;;;;18.15;39.06;103132.69;5057413;28;19936;-73
2022/04/29 08:19:18;;;;;;;;;;;;;;;18.18;38.55;103130.34;5058455;28;19979;-74
2022/04/29 08:21:43;;;;;;;;;;;;;;;18.05;38.99;103135.88;5057472;28;19946;-73
2022/04/29 08:24:09;;;;;;;;;;;;;;;18.73;37.58;103139.56;5060045;28;19997;-73
2022/04/29 08:26:34;;;;;;;;;;;;;;;19.56;35.80;103132.63;5058634;28;19924;-73
2022/04/29 08:28:59;;;;;;;;;;;;;;;19.46;35.94;103132.31;5059396;28;19920;-72
2022/04/29 08:31:25;;;;;;;;;;;;;;;18.50;37.19;103135.78;5057436;28;19927;-74
2022/04/29 08:33:50;;;;;;;;;;;;;;;18.42;36.56;103129.59;5062448;28;20418;-73
2022/04/29 08:36:15;;;;;;;;;;;;;;;19.16;35.34;103136.88;5057822;28;20023;-72
2022/04/29 08:38:42;;;;;;;;;;;;;;;18.82;36.75;103130.06;5061915;28;20391;-73
2022/04/29 08:41:07;;;;;;;;;;;;;;;18.71;36.71;103127.25;5069189;28;19973;-74
2022/04/29 08:43:33;;;;;;;;;;;;;;;18.82;36.59;103126.50;5067532;28;20389;-73
2022/04/29 08:45:58;;;;;;;;;;;;;;;18.92;36.35;103132.28;5060244;28;19920;-74
2022/04/29 08:48:24;;;;;;;;;;;;;;;18.12;37.55;103142.13;5060747;28;19913;-73
2022/04/29 08:50:49;;;;;;;;;;;;;;;16.96;39.43;103145.06;5064443;28;19916;-73
2022/04/29 08:53:17;;;;;;;;;;;;;;;18.24;38.35;103143.09;5066702;28;20038;-75
2022/04/29 08:58:38;;;;;;;;;;;;;;;19.82;34.36;103126.81;5054404;28;19924;-73
2022/04/29 09:01:04;;;;;;;;;;;;;;;20.46;33.56;103117.06;5049846;28;19920;-73
2022/04/29 09:03:30;;;;;;;;;;;;;;;20.28;33.44;103118.00;5055850;28;19960;-71
2022/04/29 09:05:55;;;;;;;;;;;;;;;19.51;34.09;103121.59;5061011;28;19920;-73
2022/04/29 09:08:21;;;;;;;;;;;;;;;19.63;34.58;103110.72;5055600;28;19925;-73
2022/04/29 09:10:48;;;;;;;;;;;;;;;19.80;33.59;103111.75;5060777;28;20349;-75
2022/04/29 09:13:19;;;;;;;;;;;;;;;20.99;32.18;103118.63;5059104;28;20419;-74
2022/04/29 09:15:59;;;;;;;;;;;;;;;20.93;32.36;103118.75;5058105;28;19952;-74
2022/04/29 09:18:32;;;;;;;;;;;;;;;21.41;30.73;103119.28;5060747;28;19920;-73
2022/04/29 09:20:58;;;;;;;;;;;;;;;21.00;31.50;103112.09;5062995;28;20284;-74
2022/04/29 09:23:30;;;;;;;;;;;;;;;20.86;31.87;103118.03;5062814;28;20004;-74
2022/04/29 09:25:57;;;;;;;;;;;;;;;20.32;32.01;103111.00;5063965;28;19921;-73
2022/04/29 09:28:23;;;;;;;;;;;;;;;20.71;31.70;103112.22;5058089;28;19931;-74
2022/04/29 09:30:53;;;;;;;;;;;;;;;21.62;30.51;103113.16;5058191;28;19920;-74
2022/04/29 09:33:19;;;;;;;;;;;;;;;20.16;31.88;103117.09;5059383;28;20003;-74
2022/04/29 09:35:45;;;;;;;;;;;;;;;20.37;31.46;103122.03;5056080;28;19916;-73
2022/04/29 09:40:55;;;;;;;;;;;;;;;18.96;34.50;103119.88;5060089;28;19931;-72
2022/04/29 09:43:31;;;;;;;;;;;;;;;19.53;33.93;103115.88;5058903;28;19921;-74
2022/04/29 09:46:12;;;;;;;;;;;;;;;20.48;32.37;103112.22;5055190;28;19996;-72
2022/04/29 09:48:56;;;;;;;;;;;;;;;20.42;31.87;103105.75;5061316;28;19923;-73
2022/04/29 09:51:37;;;;;;;;;;;;;;;20.66;31.68;103115.66;5063157;28;19999;-72
2022/04/29 09:54:09;;;;;;;;;;;;;;;19.90;33.31;103121.06;5060117;28;19923;-74
2022/04/29 09:56:34;;;;;;;;;;;;;;;19.71;33.23;103124.91;5064660;28;19979;-74
2022/04/29 09:59:02;;;;;;;;;;;;;;;19.70;33.50;103127.81;5066493;28;19971;-73
2022/04/29 10:01:28;;;;;;;;;;;;;;;19.37;33.46;103127.41;5072247;28;19920;-72
2022/04/29 10:03:54;;;;;;;;;;;;;;;20.23;32.43;103126.03;5072322;28;19932;-73
2022/04/29 10:06:20;;;;;;;;;;;;;;;20.58;32.48;103123.38;5069429;28;19921;-73
2022/04/29 10:08:47;;;;;;;;;;;;;;;20.93;31.47;103110.56;5051874;28;19921;-74
2022/04/29 10:11:13;;;;;;;;;;;;;;;19.70;32.87;103115.03;5052614;28;19935;-73
2022/04/29 10:13:40;;;;;;;;;;;;;;;20.23;32.10;103109.66;5051943;28;19920;-75
2022/04/29 10:16:06;;;;;;;;;;;;;;;19.93;32.21;103109.66;5052188;28;19917;-76
2022/04/29 10:21:19;;;;;;;;;;;;;;;20.46;31.79;103097.97;5064984;28;19920;-75
2022/04/29 10:23:51;;;;;;;;;;;;;;;20.51;31.49;103101.63;5063457;28;20316;-73
2022/04/29 10:26:17;;;;;;;;;;;;;;;18.46;35.37;103104.63;5059472;28;19928;-75
2022/04/29 10:28:43;;;;;;;;;;;;;;;19.28;34.10;103108.59;5055624;28;19997;-74
2022/04/29 10:31:15;;;;;;;;;;;;;;;20.40;32.67;103098.91;5059001;28;19924;-74
2022/04/29 10:33:41;;;;;;;;;;;;;;;20.32;32.86;103091.03;5054143;28;20317;-73
2022/04/29 10:36:10;;;;;;;;;;;;;;;19.80;33.11;103087.19;5061228;28;20096;-74
2022/04/29 10:38:36;;;;;;;;;;;;;;;20.13;32.47;103088.34;5061500;28;19928;-73
2022/04/29 10:41:21;;;;;;;;;;;;;;;19.64;33.39;103106.91;5059050;28;20407;-72
2022/04/29 10:43:49;;;;;;;;;;;;;;;18.45;35.27;103108.41;5054311;28;19928;-75
2022/04/29 10:46:16;;;;;;;;;;;;;;;19.34;33.92;103109.59;5067141;28;20411;-74
2022/04/29 10:48:42;;;;;;;;;;;;;;;18.53;35.77;103108.13;5073134;28;20107;-72
2022/04/29 10:51:11;;;;;;;;;;;;;;;19.24;34.37;103110.13;5069380;28;20028;-72
2022/04/29 10:53:38;;;;;;;;;;;;;;;19.23;33.71;103103.00;5057271;28;19925;-72
2022/04/29 10:56:22;;;;;;;;;;;;;;;20.25;32.04;103112.97;5071797;28;19920;-71
2022/04/29 10:58:47;;;;;;;;;;;;;;;20.41;32.07;103104.13;5073952;28;20319;-72
2022/04/29 11:01:27;;;;;;;;;;;;;;;20.45;31.27;103099.84;5073236;28;19974;-72
2022/04/29 11:03:53;;;;;;;;;;;;;;;19.72;33.08;103095.69;5071179;28;20334;-73
2022/04/29 11:06:18;;;;;;;;;;;;;;;20.52;31.83;103091.56;5072952;28;19963;-74
2022/04/29 11:08:48;;;;;;;;;;;;;;;19.08;33.48;103099.00;5072609;28;19928;-73
2022/04/29 11:11:13;;;;;;;;;;;;;;;20.11;33.10;103090.50;5070764;28;19924;-73
2022/04/29 11:13:45;;;;;;;;;;;;;;;19.74;32.86;103090.84;5064782;28;20637;-72
2022/04/29 11:16:14;;;;;;;;;;;;;;;19.13;33.29;103086.34;5072527;28;19920;-74
2022/04/29 11:18:41;;;;;;;;;;;;;;;19.64;32.65;103088.66;5064433;28;20088;-74
2022/04/29 11:26:46;;;;;;;;;;;;;;;18.32;35.37;103088.38;5071969;28;19982;-73
2022/04/29 11:29:12;;;;;;;;;;;;;;;19.04;34.58;103085.00;5068773;28;19920;-70
2022/04/29 11:31:37;;;;;;;;;;;;;;;20.05;32.98;103071.47;5053902;28;19924;-73
2022/04/29 11:34:06;;;;;;;;;;;;;;;19.63;33.20;103076.09;5057460;28;19921;-72
2022/04/29 11:36:31;;;;;;;;;;;;;;;18.90;34.81;103075.31;5059499;28;19912;-73
2022/04/29 11:38:56;;;;;;;;;;;;;;;20.12;32.50;103073.06;5058350;28;20007;-71
2022/04/29 11:41:24;;;;;;;;;;;;;;;18.07;36.08;103081.25;5059349;28;20392;-73
2022/04/29 11:43:50;;;;;;;;;;;;;;;18.28;35.92;103084.44;5061287;28;20011;-75
2022/04/29 11:46:15;;;;;;;;;;;;;;;18.91;34.65;103081.56;5057764;28;20034;-73
2022/04/29 11:48:49;;;;;;;;;;;;;;;18.68;34.97;103081.38;5062174;28;19956;-72
2022/04/29 11:51:14;;;;;;;;;;;;;;;18.55;35.46;103079.63;5059292;28;19917;-72
2022/04/29 11:53:58;;;;;;;;;;;;;;;18.77;34.57;103071.88;5059967;28;19936;-72
2022/04/29 11:56:31;;;;;;;;;;;;;;;19.68;33.52;103075.38;5064018;28;19920;-70
2022/04/29 11:58:56;;;;;;;;;;;;;;;20.24;32.51;103064.91;5060024;28;19920;-72
2022/04/29 12:01:22;;;;;;;;;;;;;;;19.16;34.08;103079.63;5062760;28;19956;-74
2022/04/29 12:03:50;;;;;;;;;;;;;;;20.34;32.21;103069.78;5058128;28;19967;-74
2022/04/29 12:06:16;;;;;;;;;;;;;;;19.11;33.66;103080.28;5054388;28;19916;-73
2022/04/29 12:08:44;;;;;;;;;;;;;;;18.33;34.90;103083.78;5055461;28;19921;-72
2022/04/29 12:11:09;;;;;;;;;;;;;;;19.82;32.89;103068.69;5060240;28;19947;-72
2022/04/29 12:13:38;;;;;;;;;;;;;;;18.96;34.44;103073.56;5059190;28;19990;-73
2022/04/29 12:16:04;;;;;;;;;;;;;;;18.22;35.45;103074.41;5059953;28;20011;-72
2022/04/29 12:18:46;;;;;;;;;;;;;;;20.18;32.31;103060.38;5056620;28;19966;-72
2022/04/29 12:21:11;;;;;;;;;;;;;;;20.90;30.98;103070.00;5071038;28;20015;-72
2022/04/29 12:23:37;;;;;;;;;;;;;;;20.12;31.93;103062.13;5064411;28;20011;-71
2022/04/29 12:26:03;;;;;;;;;;;;;;;20.76;30.93;103074.06;5051801;28;20692;-72
2022/04/29 12:28:29;;;;;;;;;;;;;;;20.06;32.34;103076.72;5057814;28;19920;-72
2022/04/29 12:36:53;;;;;;;;;;;;;;;19.34;33.31;103073.34;5064245;28;19938;-71
2022/04/29 12:39:22;;;;;;;;;;;;;;;20.32;31.87;103061.84;5059068;28;19916;-72
2022/04/29 12:42:03;;;;;;;;;;;;;;;19.78;32.43;103062.88;5057189;28;19985;-72
2022/04/29 12:47:41;;;;;;;;;;;;;;;19.04;33.31;103071.38;5060275;28;20267;-72
2022/04/29 12:50:15;;;;;;;;;;;;;;;19.73;32.60;103056.44;5053896;28;20321;-71
2022/04/29 12:52:57;;;;;;;;;;;;;;;19.39;33.11;103065.31;5061635;28;19931;-73
2022/04/29 12:55:23;;;;;;;;;;;;;;;19.46;33.24;103058.69;5059560;28;19924;-72
2022/04/29 12:57:48;;;;;;;;;;;;;;;20.19;31.49;103044.81;5056286;28;19933;-73
2022/04/29 13:00:23;;;;;;;;;;;;;;;19.81;32.24;103051.47;5069073;28;19996;-71
2022/04/29 13:03:11;;;;;;;;;;;;;;;19.29;33.39;103036.66;5035236;28;19933;-72
2022/04/29 13:05:37;;;;;;;;;;;;;;;17.88;35.50;103049.56;5057331;28;19924;-71
2022/04/29 13:08:03;;;;;;;;;;;;;;;19.56;33.15;103030.88;5050110;28;19952;-72